sensor_id;sensor_type;location;lat;lon;timestamp;P1;durP1;ratioP1;P2;durP2;ratioP2
19131;SDS011;9698;51.976;7.570;2023-04-10T00:01:52;61.60;;;41.63;;
19131;SDS011;9698;51.976;7.570;2023-04-10T00:04:20;58.70;;;40.53;;
19131;SDS011;9698;51.976;7.570;2023-04-10T00:06:48;62.33;;;41.70;;
19131;SDS011;9698;51.976;7.570;2023-04-10T00:09:16;60.07;;;41.53;;
19131;SDS011;9698;51.976;7.570;2023-04-10T00:11:44;64.93;;;41.77;;
19131;SDS011;9698;51.976;7.570;2023-04-10T00:14:12;58.60;;;41.33;;
19131;SDS011;9698;51.976;7.570;2023-04-10T00:16:40;61.70;;;39.77;;
19131;SDS011;9698;51.976;7.570;2023-04-10T00:19:07;59.80;;;39.13;;
19131;SDS011;9698;51.976;7.570;2023-04-10T00:21:36;62.13;;;39.17;;
19131;SDS011;9698;51.976;7.570;2023-04-10T00:24:04;59.13;;;37.07;;
19131;SDS011;9698;51.976;7.570;2023-04-10T00:26:32;59.90;;;38.03;;
19131;SDS011;9698;51.976;7.570;2023-04-10T00:29:00;59.57;;;37.23;;
19131;SDS011;9698;51.976;7.570;2023-04-10T00:31:28;63.30;;;38.47;;
19131;SDS011;9698;51.976;7.570;2023-04-10T00:33:57;58.37;;;36.93;;
19131;SDS011;9698;51.976;7.570;2023-04-10T00:36:25;59.10;;;37.40;;
19131;SDS011;9698;51.976;7.570;2023-04-10T00:38:53;60.43;;;38.93;;
19131;SDS011;9698;51.976;7.570;2023-04-10T00:41:21;61.13;;;38.70;;
19131;SDS011;9698;51.976;7.570;2023-04-10T00:43:49;63.40;;;37.97;;
19131;SDS011;9698;51.976;7.570;2023-04-10T00:46:21;56.43;;;37.10;;
19131;SDS011;9698;51.976;7.570;2023-04-10T00:48:50;63.57;;;38.17;;
19131;SDS011;9698;51.976;7.570;2023-04-10T00:51:19;62.57;;;39.27;;
19131;SDS011;9698;51.976;7.570;2023-04-10T00:53:48;70.97;;;40.60;;
19131;SDS011;9698;51.976;7.570;2023-04-10T00:56:17;66.07;;;40.33;;
19131;SDS011;9698;51.976;7.570;2023-04-10T00:58:46;69.60;;;43.63;;
19131;SDS011;9698;51.976;7.570;2023-04-10T01:01:14;69.90;;;43.73;;
19131;SDS011;9698;51.976;7.570;2023-04-10T01:03:42;78.60;;;45.83;;
19131;SDS011;9698;51.976;7.570;2023-04-10T01:06:14;73.70;;;45.37;;
19131;SDS011;9698;51.976;7.570;2023-04-10T01:08:59;74.40;;;45.37;;
19131;SDS011;9698;51.976;7.570;2023-04-10T01:11:35;73.90;;;46.03;;
19131;SDS011;9698;51.976;7.570;2023-04-10T01:14:13;71.53;;;44.07;;
19131;SDS011;9698;51.976;7.570;2023-04-10T01:16:50;70.27;;;44.43;;
19131;SDS011;9698;51.976;7.570;2023-04-10T01:19:52;73.77;;;44.43;;
19131;SDS011;9698;51.976;7.570;2023-04-10T01:28:22;76.37;;;45.33;;
19131;SDS011;9698;51.976;7.570;2023-04-10T01:30:58;72.93;;;45.07;;
19131;SDS011;9698;51.976;7.570;2023-04-10T01:33:29;77.83;;;45.50;;
19131;SDS011;9698;51.976;7.570;2023-04-10T01:36:04;77.50;;;45.07;;
19131;SDS011;9698;51.976;7.570;2023-04-10T01:38:33;71.03;;;43.97;;
19131;SDS011;9698;51.976;7.570;2023-04-10T01:41:21;73.67;;;44.50;;
19131;SDS011;9698;51.976;7.570;2023-04-10T01:43:50;71.80;;;45.43;;
19131;SDS011;9698;51.976;7.570;2023-04-10T01:46:19;71.57;;;43.87;;
19131;SDS011;9698;51.976;7.570;2023-04-10T01:48:49;70.10;;;43.53;;
19131;SDS011;9698;51.976;7.570;2023-04-10T01:51:19;74.50;;;45.50;;
19131;SDS011;9698;51.976;7.570;2023-04-10T01:53:47;77.43;;;46.63;;
19131;SDS011;9698;51.976;7.570;2023-04-10T01:56:17;73.70;;;45.47;;
19131;SDS011;9698;51.976;7.570;2023-04-10T01:58:45;71.70;;;45.27;;
19131;SDS011;9698;51.976;7.570;2023-04-10T02:01:17;72.50;;;45.33;;
19131;SDS011;9698;51.976;7.570;2023-04-10T02:03:55;76.10;;;45.37;;
19131;SDS011;9698;51.976;7.570;2023-04-10T02:06:25;68.40;;;43.73;;
19131;SDS011;9698;51.976;7.570;2023-04-10T02:09:15;71.63;;;44.17;;
19131;SDS011;9698;51.976;7.570;2023-04-10T02:11:51;73.23;;;43.73;;
19131;SDS011;9698;51.976;7.570;2023-04-10T02:14:42;69.67;;;42.83;;
19131;SDS011;9698;51.976;7.570;2023-04-10T02:17:14;66.97;;;42.73;;
19131;SDS011;9698;51.976;7.570;2023-04-10T02:19:46;77.03;;;44.53;;
19131;SDS011;9698;51.976;7.570;2023-04-10T02:22:16;72.63;;;44.23;;
19131;SDS011;9698;51.976;7.570;2023-04-10T02:24:44;73.03;;;45.60;;
19131;SDS011;9698;51.976;7.570;2023-04-10T02:27:12;78.33;;;45.20;;
19131;SDS011;9698;51.976;7.570;2023-04-10T02:29:40;78.03;;;47.67;;
19131;SDS011;9698;51.976;7.570;2023-04-10T02:32:08;72.97;;;45.33;;
19131;SDS011;9698;51.976;7.570;2023-04-10T02:34:36;78.13;;;47.43;;
19131;SDS011;9698;51.976;7.570;2023-04-10T02:37:04;75.97;;;46.50;;
19131;SDS011;9698;51.976;7.570;2023-04-10T02:39:32;75.73;;;45.93;;
19131;SDS011;9698;51.976;7.570;2023-04-10T02:42:00;74.67;;;45.80;;
19131;SDS011;9698;51.976;7.570;2023-04-10T02:44:28;67.83;;;44.03;;
19131;SDS011;9698;51.976;7.570;2023-04-10T02:46:56;76.07;;;45.30;;
19131;SDS011;9698;51.976;7.570;2023-04-10T02:49:24;70.47;;;43.20;;
19131;SDS011;9698;51.976;7.570;2023-04-10T02:51:52;72.40;;;45.23;;
19131;SDS011;9698;51.976;7.570;2023-04-10T02:54:20;73.23;;;44.33;;
19131;SDS011;9698;51.976;7.570;2023-04-10T02:56:47;77.87;;;46.97;;
19131;SDS011;9698;51.976;7.570;2023-04-10T02:59:15;70.73;;;44.53;;
19131;SDS011;9698;51.976;7.570;2023-04-10T03:01:44;75.20;;;44.83;;
19131;SDS011;9698;51.976;7.570;2023-04-10T03:04:12;70.20;;;44.13;;
19131;SDS011;9698;51.976;7.570;2023-04-10T03:06:40;75.17;;;45.87;;
19131;SDS011;9698;51.976;7.570;2023-04-10T03:09:08;75.77;;;44.80;;
19131;SDS011;9698;51.976;7.570;2023-04-10T03:11:36;73.83;;;44.63;;
19131;SDS011;9698;51.976;7.570;2023-04-10T03:14:04;74.17;;;45.00;;
19131;SDS011;9698;51.976;7.570;2023-04-10T03:16:32;69.97;;;42.60;;
19131;SDS011;9698;51.976;7.570;2023-04-10T03:19:00;67.60;;;43.23;;
19131;SDS011;9698;51.976;7.570;2023-04-10T03:21:28;70.90;;;44.70;;
19131;SDS011;9698;51.976;7.570;2023-04-10T03:23:56;71.87;;;43.70;;
19131;SDS011;9698;51.976;7.570;2023-04-10T03:26:23;70.50;;;42.73;;
19131;SDS011;9698;51.976;7.570;2023-04-10T03:28:51;72.60;;;43.47;;
19131;SDS011;9698;51.976;7.570;2023-04-10T03:31:19;70.10;;;44.13;;
19131;SDS011;9698;51.976;7.570;2023-04-10T03:33:47;71.97;;;44.80;;
19131;SDS011;9698;51.976;7.570;2023-04-10T03:36:15;75.27;;;44.43;;
19131;SDS011;9698;51.976;7.570;2023-04-10T03:38:44;69.97;;;42.97;;
19131;SDS011;9698;51.976;7.570;2023-04-10T03:41:12;71.60;;;43.17;;
19131;SDS011;9698;51.976;7.570;2023-04-10T03:43:39;73.43;;;45.10;;
19131;SDS011;9698;51.976;7.570;2023-04-10T03:46:07;72.97;;;41.87;;
19131;SDS011;9698;51.976;7.570;2023-04-10T03:48:35;71.27;;;43.13;;
19131;SDS011;9698;51.976;7.570;2023-04-10T03:51:03;69.93;;;42.63;;
19131;SDS011;9698;51.976;7.570;2023-04-10T03:53:32;68.90;;;42.53;;
19131;SDS011;9698;51.976;7.570;2023-04-10T03:56:01;71.20;;;42.50;;
19131;SDS011;9698;51.976;7.570;2023-04-10T03:58:29;72.37;;;42.40;;
19131;SDS011;9698;51.976;7.570;2023-04-10T04:00:57;66.40;;;42.20;;
19131;SDS011;9698;51.976;7.570;2023-04-10T04:03:24;67.33;;;40.57;;
19131;SDS011;9698;51.976;7.570;2023-04-10T04:05:53;66.00;;;40.83;;
19131;SDS011;9698;51.976;7.570;2023-04-10T04:08:21;67.50;;;41.10;;
19131;SDS011;9698;51.976;7.570;2023-04-10T04:10:49;70.93;;;41.73;;
19131;SDS011;9698;51.976;7.570;2023-04-10T04:13:16;66.13;;;39.60;;
19131;SDS011;9698;51.976;7.570;2023-04-10T04:15:45;69.53;;;41.77;;
19131;SDS011;9698;51.976;7.570;2023-04-10T04:18:13;70.43;;;42.40;;
19131;SDS011;9698;51.976;7.570;2023-04-10T04:20:41;67.47;;;41.07;;
19131;SDS011;9698;51.976;7.570;2023-04-10T04:23:08;63.87;;;39.10;;
19131;SDS011;9698;51.976;7.570;2023-04-10T04:25:36;62.60;;;39.07;;
19131;SDS011;9698;51.976;7.570;2023-04-10T04:28:04;65.93;;;40.50;;
19131;SDS011;9698;51.976;7.570;2023-04-10T04:30:32;59.23;;;37.13;;
19131;SDS011;9698;51.976;7.570;2023-04-10T04:33:00;61.93;;;38.27;;
19131;SDS011;9698;51.976;7.570;2023-04-10T04:35:28;56.80;;;37.43;;
19131;SDS011;9698;51.976;7.570;2023-04-10T04:37:56;64.93;;;38.23;;
19131;SDS011;9698;51.976;7.570;2023-04-10T04:40:23;60.87;;;37.57;;
19131;SDS011;9698;51.976;7.570;2023-04-10T04:42:51;66.20;;;39.33;;
19131;SDS011;9698;51.976;7.570;2023-04-10T04:45:19;62.77;;;37.67;;
19131;SDS011;9698;51.976;7.570;2023-04-10T04:47:47;60.53;;;38.07;;
19131;SDS011;9698;51.976;7.570;2023-04-10T04:50:15;57.97;;;35.33;;
19131;SDS011;9698;51.976;7.570;2023-04-10T04:52:43;64.30;;;37.37;;
19131;SDS011;9698;51.976;7.570;2023-04-10T04:55:11;56.33;;;36.63;;
19131;SDS011;9698;51.976;7.570;2023-04-10T04:57:39;57.07;;;35.67;;
19131;SDS011;9698;51.976;7.570;2023-04-10T05:00:07;51.90;;;33.83;;
19131;SDS011;9698;51.976;7.570;2023-04-10T05:02:36;59.37;;;37.77;;
19131;SDS011;9698;51.976;7.570;2023-04-10T05:05:05;53.53;;;34.80;;
19131;SDS011;9698;51.976;7.570;2023-04-10T05:07:33;55.40;;;35.10;;
19131;SDS011;9698;51.976;7.570;2023-04-10T05:10:01;57.87;;;35.60;;
19131;SDS011;9698;51.976;7.570;2023-04-10T05:12:29;54.33;;;34.40;;
19131;SDS011;9698;51.976;7.570;2023-04-10T05:14:57;53.07;;;33.80;;
19131;SDS011;9698;51.976;7.570;2023-04-10T05:17:25;51.83;;;33.33;;
19131;SDS011;9698;51.976;7.570;2023-04-10T05:19:53;54.30;;;32.50;;
19131;SDS011;9698;51.976;7.570;2023-04-10T05:22:21;44.37;;;30.13;;
19131;SDS011;9698;51.976;7.570;2023-04-10T05:24:49;47.23;;;30.13;;
19131;SDS011;9698;51.976;7.570;2023-04-10T05:27:16;41.70;;;28.20;;
19131;SDS011;9698;51.976;7.570;2023-04-10T05:29:44;45.67;;;28.90;;
19131;SDS011;9698;51.976;7.570;2023-04-10T05:32:12;45.33;;;28.33;;
19131;SDS011;9698;51.976;7.570;2023-04-10T05:34:40;44.33;;;27.40;;
19131;SDS011;9698;51.976;7.570;2023-04-10T05:37:08;36.90;;;24.60;;
19131;SDS011;9698;51.976;7.570;2023-04-10T05:39:38;41.77;;;25.87;;
19131;SDS011;9698;51.976;7.570;2023-04-10T05:42:06;34.77;;;23.60;;
19131;SDS011;9698;51.976;7.570;2023-04-10T05:44:33;35.23;;;22.90;;
19131;SDS011;9698;51.976;7.570;2023-04-10T05:47:01;34.07;;;21.00;;
19131;SDS011;9698;51.976;7.570;2023-04-10T05:49:29;32.77;;;21.73;;
19131;SDS011;9698;51.976;7.570;2023-04-10T05:51:57;32.73;;;21.30;;
19131;SDS011;9698;51.976;7.570;2023-04-10T05:54:25;29.77;;;20.33;;
19131;SDS011;9698;51.976;7.570;2023-04-10T05:57:13;32.13;;;21.10;;
19131;SDS011;9698;51.976;7.570;2023-04-10T05:59:41;30.83;;;20.43;;
19131;SDS011;9698;51.976;7.570;2023-04-10T06:02:09;32.17;;;21.10;;
19131;SDS011;9698;51.976;7.570;2023-04-10T06:04:38;30.17;;;19.33;;
19131;SDS011;9698;51.976;7.570;2023-04-10T06:07:06;28.97;;;18.40;;
19131;SDS011;9698;51.976;7.570;2023-04-10T06:09:34;26.73;;;18.53;;
19131;SDS011;9698;51.976;7.570;2023-04-10T06:12:01;26.57;;;17.23;;
19131;SDS011;9698;51.976;7.570;2023-04-10T06:14:30;25.30;;;16.80;;
19131;SDS011;9698;51.976;7.570;2023-04-10T06:16:57;21.03;;;15.73;;
19131;SDS011;9698;51.976;7.570;2023-04-10T06:19:25;26.43;;;16.30;;
19131;SDS011;9698;51.976;7.570;2023-04-10T06:21:53;25.83;;;16.03;;
19131;SDS011;9698;51.976;7.570;2023-04-10T06:24:21;21.30;;;15.00;;
19131;SDS011;9698;51.976;7.570;2023-04-10T06:26:49;21.17;;;15.43;;
19131;SDS011;9698;51.976;7.570;2023-04-10T06:29:17;23.53;;;14.53;;
19131;SDS011;9698;51.976;7.570;2023-04-10T06:31:45;21.47;;;14.50;;
19131;SDS011;9698;51.976;7.570;2023-04-10T06:34:13;19.90;;;13.77;;
19131;SDS011;9698;51.976;7.570;2023-04-10T06:36:40;23.17;;;15.03;;
19131;SDS011;9698;51.976;7.570;2023-04-10T06:39:08;18.43;;;12.57;;
19131;SDS011;9698;51.976;7.570;2023-04-10T06:41:36;21.07;;;13.73;;
19131;SDS011;9698;51.976;7.570;2023-04-10T06:44:04;18.27;;;13.53;;
19131;SDS011;9698;51.976;7.570;2023-04-10T06:46:32;19.07;;;13.70;;
19131;SDS011;9698;51.976;7.570;2023-04-10T06:49:00;16.77;;;12.73;;
19131;SDS011;9698;51.976;7.570;2023-04-10T06:51:28;18.53;;;12.30;;
19131;SDS011;9698;51.976;7.570;2023-04-10T06:53:56;18.47;;;12.40;;
19131;SDS011;9698;51.976;7.570;2023-04-10T06:56:24;16.73;;;12.23;;
19131;SDS011;9698;51.976;7.570;2023-04-10T06:58:52;18.13;;;12.23;;
19131;SDS011;9698;51.976;7.570;2023-04-10T07:01:20;18.30;;;12.83;;
19131;SDS011;9698;51.976;7.570;2023-04-10T07:03:48;20.17;;;12.70;;
19131;SDS011;9698;51.976;7.570;2023-04-10T07:06:16;15.23;;;11.80;;
19131;SDS011;9698;51.976;7.570;2023-04-10T07:08:44;17.43;;;12.37;;
19131;SDS011;9698;51.976;7.570;2023-04-10T07:11:13;16.23;;;12.00;;
19131;SDS011;9698;51.976;7.570;2023-04-10T07:13:41;20.53;;;13.30;;
19131;SDS011;9698;51.976;7.570;2023-04-10T07:16:28;16.10;;;11.17;;
19131;SDS011;9698;51.976;7.570;2023-04-10T07:18:57;15.30;;;10.93;;
19131;SDS011;9698;51.976;7.570;2023-04-10T07:21:25;16.10;;;10.30;;
19131;SDS011;9698;51.976;7.570;2023-04-10T07:23:53;15.10;;;9.80;;
19131;SDS011;9698;51.976;7.570;2023-04-10T07:26:21;12.33;;;9.30;;
19131;SDS011;9698;51.976;7.570;2023-04-10T07:28:50;13.97;;;10.43;;
19131;SDS011;9698;51.976;7.570;2023-04-10T07:31:19;10.93;;;9.13;;
19131;SDS011;9698;51.976;7.570;2023-04-10T07:33:46;11.73;;;9.17;;
19131;SDS011;9698;51.976;7.570;2023-04-10T07:36:15;13.30;;;9.83;;
19131;SDS011;9698;51.976;7.570;2023-04-10T07:38:43;12.53;;;9.80;;
19131;SDS011;9698;51.976;7.570;2023-04-10T07:41:11;11.33;;;8.87;;
19131;SDS011;9698;51.976;7.570;2023-04-10T07:43:39;12.70;;;10.03;;
19131;SDS011;9698;51.976;7.570;2023-04-10T07:46:07;12.30;;;9.43;;
19131;SDS011;9698;51.976;7.570;2023-04-10T07:48:35;14.20;;;9.73;;
19131;SDS011;9698;51.976;7.570;2023-04-10T07:51:03;14.30;;;9.87;;
19131;SDS011;9698;51.976;7.570;2023-04-10T07:53:34;13.33;;;9.80;;
19131;SDS011;9698;51.976;7.570;2023-04-10T07:56:02;11.40;;;8.83;;
19131;SDS011;9698;51.976;7.570;2023-04-10T07:58:31;12.57;;;8.70;;
19131;SDS011;9698;51.976;7.570;2023-04-10T08:00:59;12.57;;;9.33;;
19131;SDS011;9698;51.976;7.570;2023-04-10T08:03:27;11.50;;;9.07;;
19131;SDS011;9698;51.976;7.570;2023-04-10T08:05:55;11.43;;;9.07;;
19131;SDS011;9698;51.976;7.570;2023-04-10T08:08:23;12.23;;;8.90;;
19131;SDS011;9698;51.976;7.570;2023-04-10T08:10:51;15.23;;;10.47;;
19131;SDS011;9698;51.976;7.570;2023-04-10T08:13:18;12.63;;;9.67;;
19131;SDS011;9698;51.976;7.570;2023-04-10T08:15:46;12.13;;;9.30;;
19131;SDS011;9698;51.976;7.570;2023-04-10T08:18:14;11.90;;;9.23;;
19131;SDS011;9698;51.976;7.570;2023-04-10T08:20:42;12.73;;;9.53;;
19131;SDS011;9698;51.976;7.570;2023-04-10T08:23:10;11.57;;;8.50;;
19131;SDS011;9698;51.976;7.570;2023-04-10T08:25:47;12.53;;;9.00;;
19131;SDS011;9698;51.976;7.570;2023-04-10T08:28:15;12.07;;;9.03;;
19131;SDS011;9698;51.976;7.570;2023-04-10T08:30:44;12.60;;;9.83;;
19131;SDS011;9698;51.976;7.570;2023-04-10T08:33:12;13.70;;;9.00;;
19131;SDS011;9698;51.976;7.570;2023-04-10T08:35:41;13.03;;;9.67;;
19131;SDS011;9698;51.976;7.570;2023-04-10T08:38:12;12.43;;;7.90;;
19131;SDS011;9698;51.976;7.570;2023-04-10T08:40:40;11.50;;;8.80;;
19131;SDS011;9698;51.976;7.570;2023-04-10T08:43:09;13.17;;;9.63;;
19131;SDS011;9698;51.976;7.570;2023-04-10T08:45:39;10.10;;;8.20;;
19131;SDS011;9698;51.976;7.570;2023-04-10T08:48:07;12.90;;;8.70;;
19131;SDS011;9698;51.976;7.570;2023-04-10T08:50:39;10.97;;;8.50;;
19131;SDS011;9698;51.976;7.570;2023-04-10T08:53:10;10.33;;;7.80;;
19131;SDS011;9698;51.976;7.570;2023-04-10T08:55:39;9.67;;;8.03;;
19131;SDS011;9698;51.976;7.570;2023-04-10T08:58:09;10.83;;;8.30;;
19131;SDS011;9698;51.976;7.570;2023-04-10T09:00:38;11.50;;;8.80;;
19131;SDS011;9698;51.976;7.570;2023-04-10T09:03:07;12.23;;;8.47;;
19131;SDS011;9698;51.976;7.570;2023-04-10T09:05:39;11.77;;;9.00;;
19131;SDS011;9698;51.976;7.570;2023-04-10T09:08:07;10.70;;;8.30;;
19131;SDS011;9698;51.976;7.570;2023-04-10T09:10:36;11.63;;;8.93;;
19131;SDS011;9698;51.976;7.570;2023-04-10T09:13:04;11.67;;;8.60;;
19131;SDS011;9698;51.976;7.570;2023-04-10T09:15:39;11.83;;;8.80;;
19131;SDS011;9698;51.976;7.570;2023-04-10T09:18:22;11.37;;;8.37;;
19131;SDS011;9698;51.976;7.570;2023-04-10T09:21:11;10.57;;;8.83;;
19131;SDS011;9698;51.976;7.570;2023-04-10T09:23:41;11.27;;;8.50;;
19131;SDS011;9698;51.976;7.570;2023-04-10T09:26:22;10.33;;;8.37;;
19131;SDS011;9698;51.976;7.570;2023-04-10T09:29:41;11.33;;;7.60;;
19131;SDS011;9698;51.976;7.570;2023-04-10T09:32:10;8.67;;;7.13;;
19131;SDS011;9698;51.976;7.570;2023-04-10T09:37:36;7.13;;;6.03;;
19131;SDS011;9698;51.976;7.570;2023-04-10T09:40:17;7.70;;;5.70;;
19131;SDS011;9698;51.976;7.570;2023-04-10T09:42:48;6.13;;;5.53;;
19131;SDS011;9698;51.976;7.570;2023-04-10T09:45:16;4.77;;;4.00;;
19131;SDS011;9698;51.976;7.570;2023-04-10T09:47:56;5.33;;;4.60;;
19131;SDS011;9698;51.976;7.570;2023-04-10T09:50:33;5.47;;;3.90;;
19131;SDS011;9698;51.976;7.570;2023-04-10T09:53:05;3.97;;;3.50;;
19131;SDS011;9698;51.976;7.570;2023-04-10T09:59:08;3.50;;;3.10;;
19131;SDS011;9698;51.976;7.570;2023-04-10T10:01:38;4.20;;;3.80;;
19131;SDS011;9698;51.976;7.570;2023-04-10T10:04:07;5.10;;;3.60;;
19131;SDS011;9698;51.976;7.570;2023-04-10T10:06:36;3.77;;;3.43;;
19131;SDS011;9698;51.976;7.570;2023-04-10T10:09:05;3.60;;;3.30;;
19131;SDS011;9698;51.976;7.570;2023-04-10T10:11:33;3.80;;;3.37;;
19131;SDS011;9698;51.976;7.570;2023-04-10T10:14:02;3.83;;;3.50;;
19131;SDS011;9698;51.976;7.570;2023-04-10T10:16:33;3.93;;;3.57;;
19131;SDS011;9698;51.976;7.570;2023-04-10T10:19:10;4.67;;;3.40;;
19131;SDS011;9698;51.976;7.570;2023-04-10T10:24:35;3.97;;;3.43;;
19131;SDS011;9698;51.976;7.570;2023-04-10T10:27:08;3.60;;;3.30;;
19131;SDS011;9698;51.976;7.570;2023-04-10T10:29:36;4.30;;;3.90;;
19131;SDS011;9698;51.976;7.570;2023-04-10T10:32:06;4.07;;;3.67;;
19131;SDS011;9698;51.976;7.570;2023-04-10T10:34:34;3.67;;;3.30;;
19131;SDS011;9698;51.976;7.570;2023-04-10T10:37:03;3.60;;;3.30;;
19131;SDS011;9698;51.976;7.570;2023-04-10T10:39:33;5.00;;;3.20;;
19131;SDS011;9698;51.976;7.570;2023-04-10T10:42:15;4.20;;;3.27;;
19131;SDS011;9698;51.976;7.570;2023-04-10T10:44:51;4.20;;;3.80;;
19131;SDS011;9698;51.976;7.570;2023-04-10T10:47:42;4.77;;;4.20;;
19131;SDS011;9698;51.976;7.570;2023-04-10T10:50:14;4.23;;;3.83;;
19131;SDS011;9698;51.976;7.570;2023-04-10T10:52:43;5.03;;;3.80;;
19131;SDS011;9698;51.976;7.570;2023-04-10T10:55:30;6.83;;;3.90;;
19131;SDS011;9698;51.976;7.570;2023-04-10T10:58:02;4.03;;;3.63;;
19131;SDS011;9698;51.976;7.570;2023-04-10T11:03:36;4.17;;;3.53;;
19131;SDS011;9698;51.976;7.570;2023-04-10T11:06:06;3.73;;;3.10;;
19131;SDS011;9698;51.976;7.570;2023-04-10T11:08:41;4.57;;;3.90;;
19131;SDS011;9698;51.976;7.570;2023-04-10T11:11:15;3.27;;;2.83;;
19131;SDS011;9698;51.976;7.570;2023-04-10T11:16:45;3.30;;;3.00;;
19131;SDS011;9698;51.976;7.570;2023-04-10T11:19:13;3.53;;;3.23;;
19131;SDS011;9698;51.976;7.570;2023-04-10T11:21:59;3.67;;;2.97;;
19131;SDS011;9698;51.976;7.570;2023-04-10T11:27:39;2.70;;;2.50;;
19131;SDS011;9698;51.976;7.570;2023-04-10T11:30:25;2.80;;;2.50;;
19131;SDS011;9698;51.976;7.570;2023-04-10T11:32:55;2.87;;;2.57;;
19131;SDS011;9698;51.976;7.570;2023-04-10T11:35:23;2.67;;;2.47;;
19131;SDS011;9698;51.976;7.570;2023-04-10T11:38:07;3.37;;;2.80;;
19131;SDS011;9698;51.976;7.570;2023-04-10T11:40:36;3.47;;;2.63;;
19131;SDS011;9698;51.976;7.570;2023-04-10T11:43:20;3.13;;;2.83;;
19131;SDS011;9698;51.976;7.570;2023-04-10T11:45:48;3.23;;;2.93;;
19131;SDS011;9698;51.976;7.570;2023-04-10T11:48:16;3.47;;;3.10;;
19131;SDS011;9698;51.976;7.570;2023-04-10T11:50:43;3.10;;;2.70;;
19131;SDS011;9698;51.976;7.570;2023-04-10T11:53:18;2.80;;;2.43;;
19131;SDS011;9698;51.976;7.570;2023-04-10T11:55:47;3.23;;;2.93;;
19131;SDS011;9698;51.976;7.570;2023-04-10T11:58:22;3.07;;;2.50;;
19131;SDS011;9698;51.976;7.570;2023-04-10T12:00:57;2.90;;;2.67;;
19131;SDS011;9698;51.976;7.570;2023-04-10T12:03:33;3.00;;;2.70;;
19131;SDS011;9698;51.976;7.570;2023-04-10T12:06:04;2.57;;;2.37;;
19131;SDS011;9698;51.976;7.570;2023-04-10T12:08:35;2.57;;;2.30;;
19131;SDS011;9698;51.976;7.570;2023-04-10T12:11:04;3.00;;;2.60;;
19131;SDS011;9698;51.976;7.570;2023-04-10T12:13:33;16.17;;;4.43;;
19131;SDS011;9698;51.976;7.570;2023-04-10T12:16:02;2.70;;;2.47;;
19131;SDS011;9698;51.976;7.570;2023-04-10T12:18:32;2.90;;;2.60;;
19131;SDS011;9698;51.976;7.570;2023-04-10T12:21:01;2.87;;;2.43;;
19131;SDS011;9698;51.976;7.570;2023-04-10T12:23:31;18.67;;;6.53;;
19131;SDS011;9698;51.976;7.570;2023-04-10T12:26:06;5.57;;;4.33;;
19131;SDS011;9698;51.976;7.570;2023-04-10T12:28:37;5.47;;;4.20;;
19131;SDS011;9698;51.976;7.570;2023-04-10T12:31:07;23.10;;;8.17;;
19131;SDS011;9698;51.976;7.570;2023-04-10T12:33:35;9.60;;;5.37;;
19131;SDS011;9698;51.976;7.570;2023-04-10T12:36:06;3.67;;;2.90;;
19131;SDS011;9698;51.976;7.570;2023-04-10T12:38:47;5.67;;;4.27;;
19131;SDS011;9698;51.976;7.570;2023-04-10T12:41:20;5.10;;;3.27;;
19131;SDS011;9698;51.976;7.570;2023-04-10T12:43:49;6.07;;;4.20;;
19131;SDS011;9698;51.976;7.570;2023-04-10T12:46:22;4.63;;;2.77;;
19131;SDS011;9698;51.976;7.570;2023-04-10T12:48:52;4.43;;;3.07;;
19131;SDS011;9698;51.976;7.570;2023-04-10T12:51:40;4.40;;;3.50;;
19131;SDS011;9698;51.976;7.570;2023-04-10T12:54:26;3.23;;;2.70;;
19131;SDS011;9698;51.976;7.570;2023-04-10T12:56:55;3.40;;;3.10;;
19131;SDS011;9698;51.976;7.570;2023-04-10T12:59:23;4.23;;;2.90;;
19131;SDS011;9698;51.976;7.570;2023-04-10T13:01:51;4.77;;;3.50;;
19131;SDS011;9698;51.976;7.570;2023-04-10T13:04:22;4.97;;;3.80;;
19131;SDS011;9698;51.976;7.570;2023-04-10T13:06:50;3.70;;;3.28;;
19131;SDS011;9698;51.976;7.570;2023-04-10T13:09:18;4.57;;;3.03;;
19131;SDS011;9698;51.976;7.570;2023-04-10T13:11:47;4.43;;;3.57;;
19131;SDS011;9698;51.976;7.570;2023-04-10T13:14:18;5.07;;;3.73;;
19131;SDS011;9698;51.976;7.570;2023-04-10T13:16:45;4.67;;;3.50;;
19131;SDS011;9698;51.976;7.570;2023-04-10T13:19:14;3.27;;;2.70;;
19131;SDS011;9698;51.976;7.570;2023-04-10T13:21:42;3.90;;;3.40;;
19131;SDS011;9698;51.976;7.570;2023-04-10T13:24:10;2.83;;;2.57;;
19131;SDS011;9698;51.976;7.570;2023-04-10T13:26:39;5.33;;;3.80;;
19131;SDS011;9698;51.976;7.570;2023-04-10T13:29:07;4.77;;;3.40;;
19131;SDS011;9698;51.976;7.570;2023-04-10T13:31:35;3.30;;;2.53;;
19131;SDS011;9698;51.976;7.570;2023-04-10T13:34:03;4.60;;;2.53;;
19131;SDS011;9698;51.976;7.570;2023-04-10T13:36:31;4.77;;;3.50;;
19131;SDS011;9698;51.976;7.570;2023-04-10T13:39:20;3.20;;;2.70;;
19131;SDS011;9698;51.976;7.570;2023-04-10T13:41:48;3.80;;;3.40;;
19131;SDS011;9698;51.976;7.570;2023-04-10T13:44:16;4.60;;;3.53;;
19131;SDS011;9698;51.976;7.570;2023-04-10T13:46:44;4.90;;;3.40;;
19131;SDS011;9698;51.976;7.570;2023-04-10T13:49:11;3.20;;;2.60;;
19131;SDS011;9698;51.976;7.570;2023-04-10T13:51:43;6.10;;;4.20;;
19131;SDS011;9698;51.976;7.570;2023-04-10T13:54:11;5.83;;;3.77;;
19131;SDS011;9698;51.976;7.570;2023-04-10T13:56:42;6.40;;;4.37;;
19131;SDS011;9698;51.976;7.570;2023-04-10T13:59:11;5.23;;;3.23;;
19131;SDS011;9698;51.976;7.570;2023-04-10T14:01:39;7.77;;;4.43;;
19131;SDS011;9698;51.976;7.570;2023-04-10T14:04:07;2.80;;;2.50;;
19131;SDS011;9698;51.976;7.570;2023-04-10T14:06:35;7.83;;;3.33;;
19131;SDS011;9698;51.976;7.570;2023-04-10T14:09:03;2.63;;;2.33;;
19131;SDS011;9698;51.976;7.570;2023-04-10T14:11:32;5.17;;;3.73;;
19131;SDS011;9698;51.976;7.570;2023-04-10T14:13:59;5.27;;;3.10;;
19131;SDS011;9698;51.976;7.570;2023-04-10T14:16:27;3.13;;;2.47;;
19131;SDS011;9698;51.976;7.570;2023-04-10T14:18:55;2.50;;;2.30;;
19131;SDS011;9698;51.976;7.570;2023-04-10T14:21:23;3.23;;;2.60;;
19131;SDS011;9698;51.976;7.570;2023-04-10T14:23:52;7.73;;;4.03;;
19131;SDS011;9698;51.976;7.570;2023-04-10T14:26:20;3.97;;;2.63;;
19131;SDS011;9698;51.976;7.570;2023-04-10T14:28:48;9.70;;;5.33;;
19131;SDS011;9698;51.976;7.570;2023-04-10T14:31:16;3.50;;;3.17;;
19131;SDS011;9698;51.976;7.570;2023-04-10T14:33:45;5.63;;;3.60;;
19131;SDS011;9698;51.976;7.570;2023-04-10T14:36:13;3.60;;;2.77;;
19131;SDS011;9698;51.976;7.570;2023-04-10T14:38:41;5.23;;;3.90;;
19131;SDS011;9698;51.976;7.570;2023-04-10T14:41:09;5.10;;;3.67;;
19131;SDS011;9698;51.976;7.570;2023-04-10T14:43:37;5.27;;;3.03;;
19131;SDS011;9698;51.976;7.570;2023-04-10T14:46:06;3.80;;;2.97;;
19131;SDS011;9698;51.976;7.570;2023-04-10T14:48:33;3.83;;;2.87;;
19131;SDS011;9698;51.976;7.570;2023-04-10T14:51:02;3.97;;;3.20;;
19131;SDS011;9698;51.976;7.570;2023-04-10T14:53:34;3.77;;;3.23;;
19131;SDS011;9698;51.976;7.570;2023-04-10T14:56:08;3.00;;;2.70;;
19131;SDS011;9698;51.976;7.570;2023-04-10T14:58:37;3.37;;;2.67;;
19131;SDS011;9698;51.976;7.570;2023-04-10T15:01:07;5.10;;;3.40;;
19131;SDS011;9698;51.976;7.570;2023-04-10T15:03:37;8.93;;;3.93;;
19131;SDS011;9698;51.976;7.570;2023-04-10T15:06:06;5.60;;;2.93;;
19131;SDS011;9698;51.976;7.570;2023-04-10T15:08:34;5.43;;;3.13;;
19131;SDS011;9698;51.976;7.570;2023-04-10T15:11:02;5.93;;;3.73;;
19131;SDS011;9698;51.976;7.570;2023-04-10T15:13:32;3.67;;;2.67;;
19131;SDS011;9698;51.976;7.570;2023-04-10T15:16:00;3.20;;;2.53;;
19131;SDS011;9698;51.976;7.570;2023-04-10T15:18:28;3.30;;;2.70;;
19131;SDS011;9698;51.976;7.570;2023-04-10T15:20:55;5.03;;;3.43;;
19131;SDS011;9698;51.976;7.570;2023-04-10T15:23:23;3.60;;;2.70;;
19131;SDS011;9698;51.976;7.570;2023-04-10T15:25:51;12.00;;;5.50;;
19131;SDS011;9698;51.976;7.570;2023-04-10T15:28:20;8.53;;;4.80;;